Time;durP1;ratioP1;P1;durP2;ratioP2;P2;SDS_P1;SDS_P2;PMS_P1;PMS_P2;Temp;Humidity;BMP_temperature;BMP_pressure;BME280_temperature;BME280_humidity;BME280_pressure;Samples;Min_cycle;Max_cycle;Signal;HPM_P1;HPM_P2
2022/04/01 00:01:18;;;;;;;3.20;1.60;;;2.10;58.40;;;;;;5073732;28;20196;-90
2022/04/01 00:03:43;;;;;;;1.60;1.50;;;2.10;57.60;;;;;;5055042;28;20193;-90
2022/04/01 00:06:09;;;;;;;2.00;1.23;;;2.20;57.80;;;;;;5055232;28;20177;-90
2022/04/01 00:08:35;;;;;;;1.10;1.10;;;2.20;58.20;;;;;;5055287;28;20186;-90
2022/04/01 00:11:00;;;;;;;1.13;1.03;;;2.20;57.10;;;;;;5055091;28;20193;-89
2022/04/01 00:13:26;;;;;;;4.27;1.37;;;2.20;58.10;;;;;;5054955;28;20198;-91
2022/04/01 00:15:52;;;;;;;1.77;1.17;;;2.10;58.40;;;;;;5055192;28;20716;-92
2022/04/01 00:18:17;;;;;;;1.10;1.10;;;2.10;59.50;;;;;;5054990;28;20289;-92
2022/04/01 00:20:43;;;;;;;0.93;0.93;;;2.00;59.00;;;;;;5054957;28;20280;-92
2022/04/01 00:23:09;;;;;;;1.43;1.33;;;2.20;57.70;;;;;;5072846;28;20193;-91
2022/04/01 00:25:34;;;;;;;1.07;0.80;;;2.20;57.70;;;;;;5054940;28;20169;-91
2022/04/01 00:28:00;;;;;;;1.37;1.13;;;2.20;57.80;;;;;;5054866;28;20164;-92
2022/04/01 00:30:26;;;;;;;1.30;1.30;;;2.10;58.30;;;;;;5055030;28;20227;-92
2022/04/01 00:32:51;;;;;;;1.60;1.10;;;2.20;57.80;;;;;;5054882;28;20241;-92
2022/04/01 00:35:17;;;;;;;1.43;1.33;;;2.10;59.10;;;;;;5055395;28;20526;-92
2022/04/01 00:37:42;;;;;;;0.90;0.90;;;2.20;59.00;;;;;;5055056;28;20276;-92
2022/04/01 00:40:12;;;;;;;1.17;1.17;;;2.20;58.10;;;;;;5055280;28;20561;-92
2022/04/01 00:42:38;;;;;;;1.20;1.10;;;2.20;58.30;;;;;;5055760;28;20203;-92
2022/04/01 00:45:04;;;;;;;0.80;0.80;;;2.10;59.70;;;;;;5054947;28;20316;-92
2022/04/01 00:47:30;;;;;;;1.00;1.00;;;2.20;58.60;;;;;;5055683;28;20182;-92
2022/04/01 00:49:55;;;;;;;2.57;1.10;;;2.20;57.90;;;;;;5058920;28;20696;-92
2022/04/01 00:52:22;;;;;;;3.80;1.50;;;2.30;57.50;;;;;;5058854;28;20209;-93
2022/04/01 00:54:52;;;;;;;1.43;1.20;;;2.10;60.40;;;;;;5059502;28;20267;-92
2022/04/01 00:57:18;;;;;;;1.00;1.00;;;2.10;59.40;;;;;;5058362;28;20170;-91
2022/04/01 00:59:44;;;;;;;1.07;1.07;;;2.20;57.00;;;;;;5058598;28;20230;-92
2022/04/01 01:02:10;;;;;;;4.67;1.50;;;2.30;58.20;;;;;;5058505;28;20180;-91
2022/04/01 01:04:37;;;;;;;1.00;1.00;;;2.20;58.10;;;;;;5058505;28;20224;-92
2022/04/01 01:07:03;;;;;;;1.17;1.17;;;2.10;59.00;;;;;;5058404;28;20178;-91
2022/04/01 01:09:29;;;;;;;1.20;1.10;;;2.20;58.20;;;;;;5058244;28;20214;-91
2022/04/01 01:11:55;;;;;;;1.07;1.07;;;2.20;58.70;;;;;;5058373;28;20209;-91
2022/04/01 01:14:41;;;;;;;1.13;1.13;;;2.10;59.40;;;;;;5058042;28;20221;-92
2022/04/01 01:17:12;;;;;;;1.33;1.20;;;2.10;59.80;;;;;;5058236;28;20536;-92
2022/04/01 01:19:39;;;;;;;1.50;1.27;;;2.20;58.80;;;;;;5058172;28;20271;-89
2022/04/01 01:22:06;;;;;;;2.40;1.10;;;2.10;60.00;;;;;;5059103;28;20357;-90
2022/04/01 01:24:37;;;;;;;2.30;1.67;;;2.10;59.50;;;;;;5058098;28;20197;-91
2022/04/01 01:27:06;;;;;;;2.20;1.20;;;2.20;58.20;;;;;;5075891;28;20217;-91
2022/04/01 01:29:32;;;;;;;2.90;1.30;;;2.10;60.30;;;;;;5057962;28;20185;-91
2022/04/01 01:32:03;;;;;;;1.47;1.33;;;2.00;61.50;;;;;;5057918;28;20188;-91
2022/04/01 01:34:32;;;;;;;1.70;1.43;;;1.90;61.40;;;;;;5057775;28;20211;-92
2022/04/01 01:36:58;;;;;;;2.60;1.40;;;2.00;61.10;;;;;;5058131;28;20179;-91
2022/04/01 01:39:24;;;;;;;2.70;1.50;;;2.00;61.50;;;;;;5057970;28;20177;-92
2022/04/01 01:41:53;;;;;;;3.50;1.40;;;1.90;62.80;;;;;;5058426;28;20258;-91
2022/04/01 01:44:20;;;;;;;1.70;1.43;;;1.90;63.80;;;;;;5057622;28;20196;-91
2022/04/01 01:46:45;;;;;;;1.83;1.50;;;1.90;62.40;;;;;;5057585;28;20172;-91
2022/04/01 01:49:11;;;;;;;2.90;1.60;;;1.90;63.70;;;;;;5057666;28;20317;-92
2022/04/01 01:57:06;;;;;;;1.70;1.40;;;1.90;64.30;;;;;;5075855;28;20263;-91
2022/04/01 01:59:33;;;;;;;5.57;1.37;;;1.90;63.50;;;;;;5056156;28;20276;-91
2022/04/01 02:02:00;;;;;;;2.57;1.57;;;1.80;63.80;;;;;;5057287;28;20180;-91
2022/04/01 02:04:26;;;;;;;10.70;3.33;;;1.80;64.30;;;;;;5057242;28;20729;-91
2022/04/01 02:06:51;;;;;;;1.67;1.40;;;1.90;63.00;;;;;;5058000;28;20632;-91
2022/04/01 02:09:17;;;;;;;3.03;1.30;;;1.90;63.10;;;;;;5057165;28;20179;-91
2022/04/01 02:11:43;;;;;;;1.73;1.63;;;1.80;63.70;;;;;;5057358;28;20175;-92
2022/04/01 02:14:11;;;;;;;1.90;1.43;;;1.90;63.20;;;;;;5056857;28;20207;-91
2022/04/01 02:16:43;;;;;;;9.87;1.67;;;1.90;62.40;;;;;;5057328;28;20193;-91
2022/04/01 02:19:09;;;;;;;1.30;1.20;;;2.00;62.60;;;;;;5056894;28;20169;-91
2022/04/01 02:21:35;;;;;;;1.20;1.10;;;1.90;63.40;;;;;;5056713;28;20201;-91
2022/04/01 02:24:00;;;;;;;1.83;1.27;;;1.90;63.70;;;;;;5074754;28;20197;-91
2022/04/01 02:26:26;;;;;;;1.73;1.10;;;1.90;62.60;;;;;;5057861;28;20179;-91
2022/04/01 02:28:54;;;;;;;1.63;1.37;;;1.90;63.50;;;;;;5056819;28;20246;-91
2022/04/01 02:31:20;;;;;;;2.60;1.40;;;1.80;63.40;;;;;;5057019;28;20215;-91
2022/04/01 02:33:46;;;;;;;2.00;1.57;;;1.80;64.40;;;;;;5056655;28;20213;-91
2022/04/01 02:36:12;;;;;;;2.87;1.20;;;1.80;64.70;;;;;;5056873;28;20196;-91
2022/04/01 02:38:40;;;;;;;1.00;1.00;;;1.80;64.60;;;;;;5056852;28;20176;-91
2022/04/01 02:41:08;;;;;;;5.20;1.40;;;1.80;64.80;;;;;;5074270;28;20249;-91
2022/04/01 02:43:35;;;;;;;1.37;1.30;;;1.80;65.40;;;;;;5056907;28;20222;-92
2022/04/01 02:46:02;;;;;;;3.00;1.60;;;1.80;65.10;;;;;;5056382;28;20182;-91
2022/04/01 02:48:28;;;;;;;1.50;1.10;;;1.80;65.70;;;;;;5074297;28;20248;-91
2022/04/01 02:50:54;;;;;;;1.30;1.20;;;1.80;65.60;;;;;;5056325;28;20210;-91
2022/04/01 02:53:20;;;;;;;4.73;1.67;;;1.80;65.60;;;;;;5056278;28;20214;-91
2022/04/01 02:55:46;;;;;;;5.70;1.30;;;1.80;65.60;;;;;;5056186;28;20180;-91
2022/04/01 02:58:12;;;;;;;1.37;1.20;;;1.90;64.90;;;;;;5056162;28;20272;-91
2022/04/01 03:00:38;;;;;;;1.20;1.10;;;1.80;65.80;;;;;;5056260;28;20637;-91
2022/04/01 03:03:06;;;;;;;1.27;1.17;;;1.80;65.00;;;;;;5073888;28;20195;-91
2022/04/01 03:05:40;;;;;;;1.50;1.23;;;1.80;66.40;;;;;;5055955;28;20184;-91
2022/04/01 03:08:07;;;;;;;1.33;1.30;;;1.90;65.20;;;;;;5074115;28;20633;-92
2022/04/01 03:10:38;;;;;;;2.30;0.90;;;1.90;65.50;;;;;;5055635;28;20232;-91
2022/04/01 03:13:07;;;;;;;1.50;1.37;;;1.90;65.60;;;;;;5056447;28;20203;-91
2022/04/01 03:15:33;;;;;;;4.03;1.10;;;1.80;67.10;;;;;;5055899;28;20179;-91
2022/04/01 03:17:59;;;;;;;1.43;1.33;;;1.90;66.30;;;;;;5055827;28;20494;-91
2022/04/01 03:20:26;;;;;;;1.20;1.20;;;1.90;65.60;;;;;;5055720;28;20688;-91
2022/04/01 03:22:52;;;;;;;3.60;1.00;;;1.90;65.60;;;;;;5055629;28;20191;-91
2022/04/01 03:25:19;;;;;;;1.00;1.00;;;2.00;64.60;;;;;;5073530;28;20181;-91
2022/04/01 03:27:46;;;;;;;1.47;1.37;;;1.90;65.30;;;;;;5055641;28;20188;-91
2022/04/01 03:30:13;;;;;;;0.90;0.90;;;1.90;66.30;;;;;;5055683;28;20274;-91
2022/04/01 03:32:39;;;;;;;1.70;1.60;;;1.90;66.00;;;;;;5055392;28;20544;-92
2022/04/01 03:35:09;;;;;;;1.10;1.10;;;1.90;65.90;;;;;;5055506;28;20179;-91
2022/04/01 03:37:35;;;;;;;1.67;1.27;;;2.00;64.10;;;;;;5056218;28;20184;-91
2022/04/01 03:40:01;;;;;;;3.47;1.40;;;1.90;65.30;;;;;;5055760;28;20199;-91
2022/04/01 03:42:30;;;;;;;1.80;1.70;;;1.90;65.00;;;;;;5055401;28;20179;-91
2022/04/01 03:44:58;;;;;;;15.57;1.33;;;1.90;65.70;;;;;;5056478;28;20206;-91
2022/04/01 03:47:31;;;;;;;1.43;1.30;;;1.90;64.70;;;;;;5055315;28;20174;-91
2022/04/01 03:50:02;;;;;;;1.00;1.00;;;1.90;66.10;;;;;;5055336;28;20168;-91
2022/04/01 03:52:31;;;;;;;1.00;1.00;;;1.90;64.30;;;;;;5055384;28;20199;-91
2022/04/01 03:55:04;;;;;;;2.50;1.30;;;1.90;65.00;;;;;;5055514;28;20188;-91
2022/04/01 03:57:39;;;;;;;5.23;1.50;;;1.90;65.00;;;;;;5056144;28;20229;-91
2022/04/01 04:00:07;;;;;;;1.63;1.10;;;1.90;64.80;;;;;;5055087;28;20205;-91
2022/04/01 04:02:34;;;;;;;1.30;1.20;;;1.90;65.10;;;;;;5073335;28;20188;-91
2022/04/01 04:05:01;;;;;;;2.37;1.50;;;1.90;65.20;;;;;;5073580;28;20181;-91
2022/04/01 04:07:27;;;;;;;2.53;1.47;;;1.90;66.00;;;;;;5055283;28;20186;-92
2022/04/01 04:09:53;;;;;;;1.37;1.10;;;1.90;65.20;;;;;;5055079;28;20176;-91
2022/04/01 04:12:22;;;;;;;1.07;1.07;;;1.90;64.70;;;;;;5054982;28;20180;-91
2022/04/01 04:14:51;;;;;;;1.73;1.60;;;1.90;66.00;;;;;;5054964;28;20175;-91
2022/04/01 04:17:37;;;;;;;4.37;1.30;;;1.80;66.50;;;;;;5055428;28;20230;-91
2022/04/01 04:20:13;;;;;;;3.03;1.30;;;1.90;65.90;;;;;;5055842;28;20187;-91
2022/04/01 04:22:45;;;;;;;1.57;1.47;;;1.90;66.10;;;;;;5056120;28;20665;-91
2022/04/01 04:25:14;;;;;;;1.20;1.10;;;1.90;65.30;;;;;;5059239;28;20211;-91
2022/04/01 04:27:51;;;;;;;1.63;1.37;;;1.90;66.30;;;;;;5059892;28;20302;-91
2022/04/01 04:30:18;;;;;;;2.80;1.30;;;1.90;66.30;;;;;;5059439;28;20164;-91
2022/04/01 04:32:55;;;;;;;1.00;1.00;;;1.90;66.00;;;;;;5058929;28;20246;-91
2022/04/01 04:35:22;;;;;;;1.57;1.17;;;1.90;66.70;;;;;;5059106;28;20196;-91
2022/04/01 04:37:50;;;;;;;3.47;1.43;;;1.80;67.30;;;;;;5076813;28;20196;-91
2022/04/01 04:40:18;;;;;;;1.10;1.10;;;1.90;66.60;;;;;;5058799;28;20287;-91
2022/04/01 04:42:48;;;;;;;3.00;1.53;;;1.90;66.60;;;;;;5058692;28;20678;-91
2022/04/01 04:45:16;;;;;;;1.73;1.63;;;1.90;67.50;;;;;;5058875;28;20215;-91
2022/04/01 04:47:43;;;;;;;1.00;1.00;;;1.90;67.10;;;;;;5058784;28;20186;-91
2022/04/01 04:50:09;;;;;;;1.53;1.20;;;1.90;66.60;;;;;;5058852;28;20280;-91
2022/04/01 04:52:38;;;;;;;2.83;1.53;;;1.90;67.20;;;;;;5058487;28;20258;-91
2022/04/01 04:55:07;;;;;;;1.00;1.00;;;1.90;67.60;;;;;;5058575;28;20220;-91
2022/04/01 04:57:35;;;;;;;2.10;1.67;;;1.90;67.20;;;;;;5059137;28;20181;-91
2022/04/01 05:00:01;;;;;;;2.13;1.70;;;2.00;66.60;;;;;;5058428;28;20296;-91
2022/04/01 05:02:57;;;;;;;1.40;1.30;;;2.00;67.40;;;;;;5058403;28;20257;-91
2022/04/01 05:05:35;;;;;;;0.90;0.90;;;1.90;68.00;;;;;;5049698;28;20198;-91
2022/04/01 05:08:07;;;;;;;1.50;1.40;;;1.90;67.90;;;;;;5058306;28;20166;-91
2022/04/01 05:10:42;;;;;;;8.30;2.37;;;1.90;68.00;;;;;;5058219;28;20189;-92
2022/04/01 05:13:18;;;;;;;1.10;1.10;;;2.00;68.30;;;;;;5058276;28;20744;-91
2022/04/01 05:15:53;;;;;;;1.53;1.43;;;1.90;68.00;;;;;;5075979;28;20159;-91
2022/04/01 05:18:35;;;;;;;2.17;1.50;;;1.90;68.30;;;;;;5058283;28;20168;-91
2022/04/01 05:21:02;;;;;;;1.20;1.10;;;2.00;68.20;;;;;;5058126;28;20203;-91
2022/04/01 05:23:46;;;;;;;1.67;1.57;;;1.90;68.30;;;;;;5058054;28;20201;-92
2022/04/01 05:26:20;;;;;;;1.87;1.70;;;2.00;68.30;;;;;;5058349;28;20160;-92
2022/04/01 05:28:51;;;;;;;2.33;1.90;;;1.90;69.20;;;;;;5058340;28;20166;-91
2022/04/01 05:31:42;;;;;;;1.43;1.33;;;2.00;69.40;;;;;;5057863;28;20537;-91
2022/04/01 05:34:28;;;;;;;2.90;2.03;;;1.90;69.20;;;;;;5057663;28;20222;-91
2022/04/01 05:36:55;;;;;;;2.27;1.33;;;2.00;68.70;;;;;;5058658;28;20580;-91
2022/04/01 05:39:21;;;;;;;6.47;2.00;;;2.10;68.40;;;;;;5075790;28;20175;-91
2022/04/01 05:41:46;;;;;;;6.77;1.80;;;2.00;69.00;;;;;;5057657;28;20207;-91
2022/04/01 05:44:13;;;;;;;2.00;1.80;;;2.00;69.30;;;;;;5057627;28;20542;-91
2022/04/01 05:46:40;;;;;;;1.90;1.70;;;2.00;69.10;;;;;;5057648;28;20184;-91
2022/04/01 05:49:06;;;;;;;4.50;1.70;;;2.00;69.20;;;;;;5057602;28;20182;-91
2022/04/01 05:51:33;;;;;;;5.17;2.00;;;2.00;69.00;;;;;;5057463;28;20183;-91
2022/04/01 05:53:59;;;;;;;1.67;1.57;;;2.10;69.90;;;;;;5057382;28;20236;-91
2022/04/01 05:56:26;;;;;;;2.27;1.50;;;2.10;68.70;;;;;;5057478;28;20189;-91
2022/04/01 05:58:52;;;;;;;1.80;1.60;;;2.10;69.10;;;;;;5057347;28;20236;-91
2022/04/01 06:01:42;;;;;;;4.57;1.70;;;2.10;68.90;;;;;;5075177;28;20633;-91
2022/04/01 06:04:19;;;;;;;4.47;1.80;;;2.10;69.20;;;;;;5075155;28;20270;-91
2022/04/01 06:06:47;;;;;;;3.73;1.83;;;2.10;68.60;;;;;;5057274;28;20267;-91
2022/04/01 06:09:31;;;;;;;2.40;1.70;;;2.10;69.40;;;;;;5057419;28;20266;-91
2022/04/01 06:12:32;;;;;;;2.10;1.87;;;2.10;69.50;;;;;;5057467;28;20208;-91
2022/04/01 06:15:14;;;;;;;4.70;2.23;;;2.10;69.50;;;;;;5057025;28;20176;-91
2022/04/01 06:18:19;;;;;;;2.67;1.80;;;2.10;70.20;;;;;;5057090;28;20629;-91
2022/04/01 06:20:47;;;;;;;2.23;2.00;;;2.20;70.10;;;;;;5073783;28;20208;-91
2022/04/01 06:23:26;;;;;;;2.10;1.90;;;2.10;71.00;;;;;;5057187;28;20297;-91
2022/04/01 06:25:57;;;;;;;5.70;2.00;;;2.20;70.40;;;;;;5057099;28;20174;-90
2022/04/01 06:28:30;;;;;;;2.07;1.97;;;2.20;70.60;;;;;;5057723;28;20210;-91
2022/04/01 06:31:06;;;;;;;3.53;2.33;;;2.20;70.30;;;;;;5056839;28;20224;-92
2022/04/01 06:33:38;;;;;;;1.50;1.40;;;2.20;71.10;;;;;;5056869;28;20224;-91
2022/04/01 06:36:05;;;;;;;5.70;2.10;;;2.30;70.50;;;;;;5056971;28;20605;-90
2022/04/01 06:38:41;;;;;;;2.57;1.33;;;2.30;69.90;;;;;;5056659;28;20619;-91
2022/04/01 06:41:09;;;;;;;2.47;1.77;;;2.30;70.20;;;;;;5056741;28;20210;-90
2022/04/01 06:43:35;;;;;;;6.13;2.47;;;2.30;70.10;;;;;;5056488;28;20200;-91
2022/04/01 06:46:05;;;;;;;2.83;2.40;;;2.30;70.00;;;;;;5055998;28;20177;-91
2022/04/01 06:48:31;;;;;;;2.77;2.10;;;2.40;69.90;;;;;;5056459;28;20270;-91
2022/04/01 06:50:57;;;;;;;5.20;2.23;;;2.40;71.10;;;;;;5056365;28;20267;-91
2022/04/01 06:53:23;;;;;;;2.40;2.20;;;2.40;70.30;;;;;;5056240;28;20197;-91
2022/04/01 06:55:49;;;;;;;3.93;2.17;;;2.40;70.50;;;;;;5056342;28;20533;-91
2022/04/01 06:58:15;;;;;;;2.50;2.30;;;2.40;70.60;;;;;;5056296;28;20177;-91
2022/04/01 07:00:41;;;;;;;1.73;1.50;;;2.40;70.70;;;;;;5056073;28;20204;-91
2022/04/01 07:03:08;;;;;;;1.80;1.60;;;2.50;69.50;;;;;;5073936;28;20184;-91
2022/04/01 07:05:36;;;;;;;3.60;1.57;;;2.60;69.50;;;;;;5056838;28;20627;-91
2022/04/01 07:08:03;;;;;;;3.20;2.07;;;2.60;69.90;;;;;;5074086;28;20207;-91
2022/04/01 07:10:29;;;;;;;1.57;1.47;;;2.60;71.00;;;;;;5056420;28;20248;-91
2022/04/01 07:12:55;;;;;;;2.63;1.67;;;2.60;70.50;;;;;;5056048;28;20289;-91
2022/04/01 07:15:20;;;;;;;5.43;2.20;;;2.70;69.60;;;;;;5057166;28;20256;-93
2022/04/01 07:17:46;;;;;;;4.10;2.70;;;2.70;69.50;;;;;;5056822;28;20175;-92
2022/04/01 07:20:12;;;;;;;4.77;2.50;;;2.70;70.00;;;;;;5056302;28;20199;-91
2022/04/01 07:22:40;;;;;;;5.30;2.83;;;2.70;70.80;;;;;;5055899;28;20194;-91
2022/04/01 07:25:07;;;;;;;2.67;2.20;;;2.70;70.50;;;;;;5056185;28;20172;-91
2022/04/01 07:27:33;;;;;;;2.00;1.90;;;2.70;69.40;;;;;;5056525;28;20176;-92
2022/04/01 07:29:58;;;;;;;4.77;2.40;;;2.80;69.90;;;;;;5056497;28;20178;-91
2022/04/01 07:32:29;;;;;;;8.07;2.60;;;2.70;71.00;;;;;;5055434;28;20559;-91
2022/04/01 07:34:55;;;;;;;3.80;1.90;;;2.80;70.00;;;;;;5073660;28;20698;-92
2022/04/01 07:37:23;;;;;;;8.30;2.90;;;2.80;69.20;;;;;;5056511;28;20258;-92
2022/04/01 07:39:51;;;;;;;1.80;1.70;;;2.80;69.80;;;;;;5073431;28;20723;-92
2022/04/01 07:42:18;;;;;;;3.30;2.40;;;2.80;69.50;;;;;;5073409;28;20169;-92
2022/04/01 07:44:44;;;;;;;5.30;2.53;;;2.80;69.80;;;;;;5055417;28;20172;-92
2022/04/01 07:47:10;;;;;;;3.00;2.20;;;2.80;70.50;;;;;;5055440;28;20207;-91
2022/04/01 07:49:40;;;;;;;2.23;1.80;;;2.80;69.30;;;;;;5055446;28;20569;-91
2022/04/01 07:52:10;;;;;;;6.00;2.27;;;2.80;68.90;;;;;;5056130;28;20170;-90
2022/04/01 07:54:37;;;;;;;3.87;2.73;;;2.80;68.90;;;;;;5055218;28;20180;-91
2022/04/01 07:57:04;;;;;;;4.57;3.03;;;2.80;68.60;;;;;;5055003;28;20192;-91
2022/04/01 07:59:30;;;;;;;2.17;1.97;;;2.80;68.60;;;;;;5055249;28;20189;-91
2022/04/01 08:01:56;;;;;;;3.03;2.40;;;2.80;68.10;;;;;;5055177;28;20198;-91
2022/04/01 08:04:25;;;;;;;2.37;2.17;;;2.80;68.70;;;;;;5055230;28;20192;-91
2022/04/01 13:35:42;;;;;;;1.43;1.33;;;5.00;55.20;;;;;;4888329;23;20329;-92
2022/04/01 13:38:07;;;;;;;2.67;2.03;;;4.90;52.80;;;;;;4847354;29;20620;-91
2022/04/01 13:40:33;;;;;;;2.83;2.20;;;4.90;55.30;;;;;;4846904;29;20310;-91
2022/04/01 13:43:00;;;;;;;2.57;1.50;;;4.80;52.80;;;;;;4847659;29;20266;-92
2022/04/01 13:45:25;;;;;;;1.80;1.70;;;4.90;56.50;;;;;;4864548;29;20196;-91
2022/04/01 13:47:51;;;;;;;6.47;3.03;;;4.90;54.20;;;;;;4864330;29;20182;-91
2022/04/01 13:50:17;;;;;;;1.77;1.67;;;4.90;55.30;;;;;;4848401;29;20207;-91
2022/04/01 13:52:42;;;;;;;2.10;1.97;;;4.80;54.80;;;;;;4847776;29;20187;-92
2022/04/01 13:55:09;;;;;;;3.00;2.03;;;4.90;57.50;;;;;;4846365;29;20210;-90
2022/04/01 13:57:34;;;;;;;2.47;2.07;;;4.80;54.80;;;;;;4848079;29;20674;-92
2022/04/01 14:00:00;;;;;;;2.87;1.70;;;4.70;56.10;;;;;;4847543;29;20243;-92
2022/04/01 14:02:25;;;;;;;2.57;1.83;;;4.80;56.60;;;;;;4849672;29;20189;-92
2022/04/01 14:04:51;;;;;;;2.73;1.50;;;4.70;56.10;;;;;;4865175;29;20199;-92
2022/04/01 14:07:16;;;;;;;5.03;2.47;;;4.80;56.80;;;;;;4847453;29;20171;-91
2022/04/01 14:09:46;;;;;;;4.30;2.50;;;4.80;58.70;;;;;;4847380;29;20553;-93
2022/04/01 14:12:13;;;;;;;2.77;2.47;;;4.80;58.80;;;;;;4848403;29;20184;-91
2022/04/01 14:14:39;;;;;;;4.60;1.90;;;4.80;58.30;;;;;;4848000;29;20207;-92
2022/04/01 14:17:06;;;;;;;4.37;2.33;;;4.80;58.10;;;;;;4849763;29;20216;-92
2022/04/01 14:19:32;;;;;;;5.07;2.40;;;4.80;58.50;;;;;;4846792;29;20217;-92
2022/04/01 14:21:57;;;;;;;6.47;2.30;;;4.80;60.50;;;;;;4847413;29;20298;-92
2022/04/01 14:24:23;;;;;;;4.30;2.20;;;4.80;59.40;;;;;;4864161;29;20189;-92
2022/04/01 14:26:48;;;;;;;2.80;1.57;;;4.80;55.40;;;;;;4847722;29;20233;-91
2022/04/01 14:31:58;;;;;;;2.93;2.13;;;4.80;54.90;;;;;;4863418;29;20193;-91
2022/04/01 14:34:25;;;;;;;1.60;1.50;;;4.80;53.20;;;;;;4846197;29;20217;-91
2022/04/01 14:36:50;;;;;;;1.90;1.80;;;4.80;55.20;;;;;;4862862;29;20277;-91
2022/04/01 14:39:16;;;;;;;1.47;1.37;;;4.80;52.70;;;;;;4863572;29;20206;-93
2022/04/01 14:41:44;;;;;;;2.23;2.03;;;4.80;53.60;;;;;;4863949;29;20198;-92
2022/04/01 14:44:10;;;;;;;1.87;1.77;;;4.80;53.30;;;;;;4846785;29;20179;-91
2022/04/01 14:46:37;;;;;;;2.13;1.47;;;4.70;52.80;;;;;;4863636;29;20179;-92
2022/04/01 14:49:04;;;;;;;1.40;1.30;;;4.80;53.50;;;;;;4846885;29;20625;-92
2022/04/01 14:51:29;;;;;;;1.97;1.47;;;4.80;55.20;;;;;;4846530;29;20669;-91
2022/04/01 14:53:55;;;;;;;1.67;1.57;;;4.80;54.70;;;;;;4862846;29;20183;-91
2022/04/01 14:56:20;;;;;;;4.53;2.60;;;4.70;54.40;;;;;;4845551;29;20305;-90
2022/04/01 14:58:46;;;;;;;1.40;1.30;;;4.70;55.70;;;;;;4845447;29;20179;-91
2022/04/01 15:01:11;;;;;;;2.63;1.87;;;4.80;55.30;;;;;;4845482;29;20303;-91
2022/04/01 15:03:38;;;;;;;4.10;2.23;;;4.70;54.20;;;;;;4862584;29;20186;-92
2022/04/01 15:06:03;;;;;;;1.90;1.80;;;4.70;53.10;;;;;;4845838;29;20198;-92
2022/04/01 15:08:29;;;;;;;1.83;1.60;;;4.60;54.60;;;;;;4862176;29;20198;-90
2022/04/01 15:10:55;;;;;;;1.30;1.20;;;4.60;54.30;;;;;;4863224;29;20209;-91
2022/04/01 15:13:20;;;;;;;3.47;1.53;;;4.70;55.20;;;;;;4847062;29;20191;-91
2022/04/01 15:15:46;;;;;;;2.03;1.80;;;4.60;53.50;;;;;;4845937;29;20203;-91
2022/04/01 15:18:12;;;;;;;3.90;1.90;;;4.60;55.20;;;;;;4846359;29;20182;-91
2022/04/01 15:20:37;;;;;;;1.80;1.30;;;4.70;54.50;;;;;;4846276;29;20624;-91
2022/04/01 15:23:03;;;;;;;7.00;1.90;;;4.70;54.50;;;;;;4846842;29;20194;-92
2022/04/01 15:25:28;;;;;;;1.73;1.63;;;4.60;54.10;;;;;;4846113;29;20733;-91
2022/04/01 15:27:54;;;;;;;2.40;2.03;;;4.60;53.40;;;;;;4845728;29;20238;-90
2022/04/01 15:30:20;;;;;;;1.10;1.10;;;4.60;53.50;;;;;;4845791;29;20187;-91
2022/04/01 15:32:45;;;;;;;1.40;1.30;;;4.60;55.60;;;;;;4846375;29;20650;-89
2022/04/01 15:35:11;;;;;;;2.83;2.63;;;4.60;53.60;;;;;;4845794;29;20310;-89
2022/04/01 15:37:40;;;;;;;1.20;1.20;;;4.50;56.50;;;;;;4845823;29;20233;-89
2022/04/01 15:40:09;;;;;;;1.70;1.60;;;4.50;53.50;;;;;;4845194;29;20187;-88
2022/04/01 15:42:36;;;;;;;1.90;1.73;;;4.50;54.20;;;;;;4846191;29;20190;-88
2022/04/01 15:45:04;;;;;;;1.50;1.40;;;4.50;55.00;;;;;;4862419;29;20224;-88
2022/04/01 15:47:31;;;;;;;2.83;1.90;;;4.50;56.10;;;;;;4845543;29;20191;-91
2022/04/01 15:49:56;;;;;;;3.63;1.30;;;4.50;53.30;;;;;;4844909;29;20563;-91
2022/04/01 15:52:22;;;;;;;3.07;2.23;;;4.50;53.60;;;;;;4861268;29;20182;-91
2022/04/01 15:54:48;;;;;;;5.77;2.97;;;4.50;55.30;;;;;;4861623;29;20202;-91
2022/04/01 15:57:16;;;;;;;3.03;2.27;;;4.40;57.30;;;;;;4845521;29;20580;-92
2022/04/01 15:59:42;;;;;;;2.17;1.77;;;4.40;56.30;;;;;;4844672;29;20243;-90
2022/04/01 16:02:13;;;;;;;2.00;1.70;;;4.40;55.20;;;;;;4844741;29;20214;-91
2022/04/01 16:04:41;;;;;;;3.03;1.20;;;4.40;51.50;;;;;;4844651;29;20230;-90
2022/04/01 16:07:09;;;;;;;4.33;2.57;;;4.30;50.90;;;;;;4845082;29;20258;-91
2022/04/01 16:09:36;;;;;;;2.20;2.00;;;4.30;54.40;;;;;;4861139;29;20179;-92
2022/04/01 16:12:08;;;;;;;3.07;2.53;;;4.30;55.80;;;;;;4845502;29;20221;-91
2022/04/01 16:14:34;;;;;;;3.00;2.10;;;4.30;55.10;;;;;;4860925;29;20525;-91
2022/04/01 16:16:59;;;;;;;1.87;1.50;;;4.30;54.10;;;;;;4844693;29;20191;-91
2022/04/01 16:19:26;;;;;;;1.50;1.40;;;4.30;53.50;;;;;;4844100;29;20219;-90
2022/04/01 16:21:52;;;;;;;1.27;1.17;;;4.30;52.30;;;;;;4845104;29;20252;-91
2022/04/01 16:24:18;;;;;;;1.90;1.73;;;4.20;52.50;;;;;;4844889;29;20247;-91
2022/04/01 16:26:44;;;;;;;1.53;1.43;;;4.30;53.00;;;;;;4844859;29;20659;-92
2022/04/01 16:29:10;;;;;;;2.10;1.37;;;4.20;52.40;;;;;;4844529;29;20187;-90
2022/04/01 16:31:37;;;;;;;1.67;1.57;;;4.20;53.20;;;;;;4844381;29;20190;-90
2022/04/01 16:34:03;;;;;;;1.30;1.30;;;4.20;55.80;;;;;;4861492;29;20187;-93
2022/04/01 16:36:29;;;;;;;4.10;1.80;;;4.10;54.80;;;;;;4854441;29;20310;-93
2022/04/01 16:38:55;;;;;;;2.57;1.93;;;4.20;54.80;;;;;;4851329;29;20188;-93
2022/04/01 16:41:21;;;;;;;2.00;1.80;;;4.10;56.40;;;;;;4845932;29;20202;-91
2022/04/01 16:43:47;;;;;;;3.03;1.60;;;4.00;56.60;;;;;;4863815;29;20310;-90
2022/04/01 16:46:14;;;;;;;3.20;1.70;;;4.10;54.70;;;;;;4845461;29;20701;-92
2022/04/01 16:48:40;;;;;;;2.60;2.00;;;4.10;56.10;;;;;;4845191;29;20201;-89
2022/04/01 16:51:05;;;;;;;4.73;3.13;;;4.00;55.00;;;;;;4844829;29;20654;-90
2022/04/01 16:53:31;;;;;;;2.17;1.97;;;4.00;56.40;;;;;;4849023;29;20269;-90
2022/04/01 16:55:59;;;;;;;4.53;2.30;;;4.00;57.00;;;;;;4844675;29;20206;-91
2022/04/01 16:58:26;;;;;;;3.70;2.33;;;4.00;58.50;;;;;;4860805;29;20181;-90
2022/04/01 17:00:52;;;;;;;4.53;2.10;;;3.90;58.70;;;;;;4845603;29;20217;-91
2022/04/01 17:03:18;;;;;;;4.57;2.30;;;3.80;58.70;;;;;;4846304;29;20182;-92
2022/04/01 17:13:57;;;;;;;5.47;2.37;;;3.80;55.40;;;;;;4862462;29;20178;-92
2022/04/01 17:16:22;;;;;;;2.27;2.00;;;3.80;56.00;;;;;;4845508;29;20206;-91
2022/04/01 17:18:48;;;;;;;3.17;2.13;;;3.70;56.60;;;;;;4848562;29;20185;-92
2022/04/01 17:21:13;;;;;;;2.13;1.90;;;3.70;57.90;;;;;;4850634;29;20209;-92
2022/04/01 17:23:41;;;;;;;3.47;1.40;;;3.70;55.70;;;;;;4847913;29;20179;-90
2022/04/01 17:26:09;;;;;;;2.87;1.40;;;3.70;54.70;;;;;;4844443;29;20210;-92
2022/04/01 17:28:34;;;;;;;1.27;1.27;;;3.70;55.60;;;;;;4844605;29;20184;-91
2022/04/01 17:31:02;;;;;;;1.40;1.30;;;3.70;56.20;;;;;;4847709;29;20186;-92
2022/04/01 17:33:27;;;;;;;2.47;2.27;;;3.70;55.90;;;;;;4864512;29;20174;-91
2022/04/01 17:36:00;;;;;;;1.80;1.63;;;3.60;59.00;;;;;;4864465;29;20281;-91
2022/04/01 17:38:27;;;;;;;3.00;1.60;;;3.60;58.20;;;;;;4849563;29;20177;-91
2022/04/01 17:40:58;;;;;;;1.63;1.37;;;3.60;57.10;;;;;;4848502;29;20241;-92
2022/04/01 17:43:24;;;;;;;3.60;1.90;;;3.50;58.80;;;;;;4847846;29;20181;-90
2022/04/01 17:45:50;;;;;;;1.50;1.40;;;3.50;60.30;;;;;;4863392;29;20288;-90
2022/04/01 17:48:18;;;;;;;1.87;1.60;;;3.60;59.00;;;;;;4846831;29;20274;-89
2022/04/01 17:50:44;;;;;;;3.90;1.67;;;3.60;58.60;;;;;;4846668;29;20233;-90
2022/04/01 17:53:09;;;;;;;1.80;1.70;;;3.50;59.60;;;;;;4846920;29;20272;-89
2022/04/01 17:55:39;;;;;;;2.37;1.63;;;3.40;60.00;;;;;;4846846;29;20237;-90
2022/04/01 17:58:10;;;;;;;4.37;1.43;;;3.30;59.30;;;;;;4863332;29;20189;-90
2022/04/01 18:00:35;;;;;;;1.90;1.70;;;3.30;61.20;;;;;;4847745;29;20197;-89
2022/04/01 18:03:05;;;;;;;3.13;1.83;;;3.30;61.40;;;;;;4849625;29;20185;-89
2022/04/01 18:05:32;;;;;;;1.70;1.60;;;3.30;61.50;;;;;;4847480;29;20580;-89
2022/04/01 18:08:01;;;;;;;4.60;2.23;;;3.20;61.60;;;;;;4864223;29;20174;-92
2022/04/01 18:10:27;;;;;;;2.90;1.70;;;3.20;62.40;;;;;;4847481;29;20189;-92
2022/04/01 18:12:53;;;;;;;3.63;1.97;;;3.10;62.60;;;;;;4847913;29;20183;-88
2022/04/01 18:15:18;;;;;;;4.00;2.00;;;3.10;63.40;;;;;;4848266;29;20303;-91
2022/04/01 18:17:44;;;;;;;2.47;2.07;;;3.00;64.40;;;;;;4846587;29;20196;-91
2022/04/01 18:20:12;;;;;;;3.00;2.17;;;3.00;63.50;;;;;;4846395;29;20227;-92
2022/04/01 18:22:38;;;;;;;4.60;1.67;;;3.00;63.80;;;;;;4846431;29;20189;-91
2022/04/01 18:25:12;;;;;;;4.50;1.70;;;3.10;62.60;;;;;;4846301;29;20568;-91
2022/04/01 18:28:00;;;;;;;2.77;2.00;;;3.00;62.60;;;;;;4846604;29;20180;-91
2022/04/01 18:30:29;;;;;;;4.60;2.47;;;3.10;61.80;;;;;;4847044;29;20253;-91
2022/04/01 18:33:26;;;;;;;3.47;2.33;;;3.10;63.60;;;;;;4846358;29;20660;-91
2022/04/01 18:35:52;;;;;;;2.90;1.43;;;3.00;63.50;;;;;;4862804;29;20258;-91
2022/04/01 18:38:20;;;;;;;0.90;0.90;;;3.10;60.90;;;;;;4846925;29;20189;-92
2022/04/01 18:40:51;;;;;;;2.17;1.90;;;3.10;60.80;;;;;;4846369;29;20680;-92
2022/04/01 18:43:19;;;;;;;4.47;1.93;;;3.00;61.70;;;;;;4845999;29;20279;-93
2022/04/01 18:45:46;;;;;;;3.30;2.70;;;2.90;62.60;;;;;;4846712;29;20258;-92
2022/04/01 18:48:12;;;;;;;1.40;1.30;;;2.90;62.40;;;;;;4845964;29;20208;-92